Rogers, AR

11:03 AM CDT en Agosto 21, 2014 (GMT -0500)
Southeast side of Rogers, Arkansas | Change Station
CLOSE
Current Station
Estación meteorológica personal
Location: Rogers, AR
Altura: 1328 ft
Estaciones meteorológicas cercanas

Alt 1328 ft 36.32 °N, 94.12 °W | Updated 4 seconds ago

Clear
Despejado
96.4 ° F
Sensación térmica 102 ° F
N
4.3
Viento Variable Viento desde SSE
Gusts 4.9 mph

Hoy
Alta -- | Baja -- ° F
--% Posibilidad de precipitaciones
Ayer
Alta -- | Baja -- ° F
Precip. -- pul
6:38 AM 7:58 PM
Creciente menguante, 13% visible
Presión 30.03 pul
Visibilidad 10.0 Millas
Nubes Despejado
Índice de calor 102 ° F
Punto de rocío 68 ° F
Humedad 40%
Precipitaciones 0.00 pul
Espesor de la nieve No disponible.
UV 0.0 de una escala de 12
Polen 9.50 de una escala de 12
Calidad del aire No disponible.
Flu Activity No disponible.
METAR KROG 211557Z 21012KT 10SM CLR 31/19 A3008 RMK AO2 SLP168 T03060194

More Conditions Fewer Conditions

Presión 30.03 pul
Visibilidad 10.0 Millas
Nubes Despejado
Índice de calor 102 ° F
Punto de rocío 68 ° F
Humedad 40%
Precipitaciones 0.00 pul
Espesor de la nieve No disponible.
UV 0.0 de una escala de 12
Polen 9.50 de una escala de 12
Calidad del aire No disponible.
Flu Activity No disponible.
METAR KROG 211557Z 21012KT 10SM CLR 31/19 A3008 RMK AO2 SLP168 T03060194

More Conditions Fewer Conditions

10-Day Weather Forecast

Almanac

Astronomía

Aug. 21, 2014 Salida Puesta
Hora real 6:38 AM CDT 7:58 PM CDT
Crepúsculo civil 6:11 AM CDT 8:25 PM CDT
Crepúsculo náutico 5:39 AM CDT 8:57 PM CDT
Crepúsculo astronómico 5:05 AM CDT 9:31 PM CDT
Luna 3:12 AM CDT 5:25 PM CDT
Horas de luz 14h 13m
Horas de luz
13h 20m
Tomorrow will be 2m 7s shorter.
Creciente menguante, 13% of the Moon is Illuminated
Hoy
Creciente menguante
Ago 25
Nueva
Sep 2
Cuarto creciente
Sep 8
Luna llena
Sep 15
Cuarto menguante

Extremos de hoy

Máximos del estado Bajos del estado

Community

WunderPhotos

Upload Photos

1,745,950 ¡fotos cargadas!

Nearby

Grosos de nieve

Estación Profundido Altura
No tenemos constancia de nieve nueva.

Actividad de terremotos

Ciudad Distance Mag. Tiempo y dato
No hay informes recientes de la actividad sísmica.
Magnitud mínima muestra es 2,5.

Temperaturas de aguas costeras

Lugar Temperatura
Sin partes meteorológicos de las estaciones

Estaciones meteorológicas cercanas